Centennial, CO

1:45 PM MDT on April 27, 2015 (GMT -0600)
Piney Creek | | Change Station
CLOSE
Current Station
Personal Weather Station
Location: Centennial, CO
Elevation: 5795 ft
Nearby Weather Stations

Elev 5795 ft 39.62 °N, 104.80 °W | Updated 39 seconds ago

Overcast
Overcast
42.2 °F
Feels Like 42 °F
N
2.0
Wind Variable Wind from NE
Gusts 3.0 mph

Today
High -- | Low -- °F
--% Chance of Precip.
Yesterday
High -- | Low -- °F
Precip. -- in
6:05 AM 7:49 PM
Waxing Gibbous, 67% visible
Pressure 30.30 in
Visibility 10.0 miles
Clouds Few 800 ft
Mostly Cloudy 1200 ft
Overcast 1500 ft
Windchill 42 °F
Dew Point 38 °F
Humidity 85%
Rainfall 0.00 in
Snow Depth Not available.
UV 3 out of 12
Pollen 3.10 out of 12
Air Quality Not available.
Flu Activity Sporadic
METAR KAPA 271853Z 01007KT 10SM FEW008 BKN012 OVC015 05/03 A3028 RMK AO2 SLP258 T00500033

More Conditions Fewer Conditions

Pressure 30.30 in
Visibility 10.0 miles
Clouds Few 800 ft
Mostly Cloudy 1200 ft
Overcast 1500 ft
Windchill 42 °F
Dew Point 38 °F
Humidity 85%
Rainfall 0.00 in
Snow Depth Not available.
UV 3 out of 12
Pollen 3.10 out of 12
Air Quality Not available.
Flu Activity Sporadic
METAR KAPA 271853Z 01007KT 10SM FEW008 BKN012 OVC015 05/03 A3028 RMK AO2 SLP258 T00500033

More Conditions Fewer Conditions

10-Day Weather Forecast

Almanac

Astronomy

Apr. 27, 2015 Rise Set
Actual Time
Civil Twilight
Nautical Twilight
Astronomical Twilight
Moon
Length of Visible Light
Length of Day
Tomorrow will be .
, % of the Moon is Illuminated

Today's Extremes

State Highs State Lows

Community

WunderPhotos

Upload Photos

1,817,414 photos uploaded!

WunderBlogs® & News

Nearby

Air Quality

  Air Quality AQ Index Pollutant
Not available.

Snow Depth

Station Depth Elevation

Earthquake Activity

City Distance Mag. Time & Date
Minimum magnitude displayed is 2.5.

Coastal Water Temperatures

Place Temperature

Stations

Nearby Weather Stations

Station Location Temp. Windchill Dew Point Humidity Wind Precip. Elev Updated Type